Denison, Texas
Current Conditions -  °F | °C
As of 12:55 AM on Thursday 23 Oct 2014 (Local Time) from KGYI Reporting Station
Scattered Clouds Scattered Clouds  
Wind Chill: 66°   Ceiling: Unl
Heat Index: 66°   Visibility: 10mi
Dew Point: 56°   Wind: 8mph
Humidity: 70%   Direction: 110°ESE
Pressure: 30.13"   Gusts: NA
Location:  33.76°N, 96.54°W
Report Text: KGYI 230555Z AUTO 11007KT 10SM SCT120 19/13 A3013 RMK AO2 T01880132 10220 20188 402650155
Loading
Personal Weather Stations






























Interactive Weather Map
Tropical Storm Tracking
New forecast layout! Learn more

10-Day Weather Forecast

Advertisements
Track Severe Weather on mobile